createdAt,value
2023-03-28T00:00:18.566Z,98.80
2023-03-28T00:02:45.322Z,98.60
2023-03-28T00:05:11.822Z,98.80
2023-03-28T00:07:39.632Z,98.40
2023-03-28T00:10:06.797Z,98.80
2023-03-28T00:12:33.302Z,98.90
2023-03-28T00:15:00.751Z,98.80
2023-03-28T00:17:27.263Z,99.30
2023-03-28T00:19:53.742Z,99.00
2023-03-28T00:22:20.542Z,99.10
2023-03-28T00:24:48.715Z,98.90
2023-03-28T00:27:15.883Z,99.00
2023-03-28T00:29:42.376Z,99.10
2023-03-28T00:32:08.989Z,99.10
2023-03-28T00:34:35.519Z,99.10
2023-03-28T00:37:05.403Z,99.20
2023-03-28T00:39:31.932Z,99.10
2023-03-28T00:42:01.318Z,99.40
2023-03-28T00:44:44.468Z,99.20
2023-03-28T00:47:10.991Z,99.40
2023-03-28T00:49:37.506Z,98.70
2023-03-28T00:52:04.282Z,98.80
2023-03-28T00:54:33.923Z,99.00
2023-03-28T00:57:02.041Z,99.10
2023-03-28T00:59:32.720Z,98.90
2023-03-28T01:01:59.422Z,98.50
2023-03-28T01:04:27.970Z,98.70
2023-03-28T01:06:56.850Z,98.80
2023-03-28T01:09:26.884Z,98.80
2023-03-28T01:11:54.436Z,99.20
2023-03-28T01:14:22.952Z,99.00
2023-03-28T01:16:51.234Z,99.30
2023-03-28T01:19:33.435Z,99.10
2023-03-28T01:22:06.439Z,98.90
2023-03-28T01:24:36.210Z,99.00
2023-03-28T01:27:17.737Z,99.00
2023-03-28T01:30:02.879Z,98.70
2023-03-28T01:32:48.313Z,98.90
2023-03-28T01:35:33.219Z,99.00
2023-03-28T01:37:59.732Z,99.60
2023-03-28T01:40:35.554Z,99.60
2023-03-28T01:43:20.321Z,99.70
2023-03-28T01:45:59.450Z,99.80
2023-03-28T01:48:44.667Z,99.20
2023-03-28T01:51:20.898Z,99.20
2023-03-28T01:53:57.634Z,99.10
2023-03-28T01:56:28.069Z,98.50
2023-03-28T01:58:58.284Z,98.30
2023-03-28T02:01:30.136Z,98.30
2023-03-28T02:04:00.035Z,98.20
2023-03-28T02:06:27.957Z,98.20
2023-03-28T02:08:55.281Z,98.40
2023-03-28T02:11:22.708Z,98.60
2023-03-28T02:13:51.028Z,98.50
2023-03-28T02:16:19.685Z,98.40
2023-03-28T02:18:49.027Z,98.10
2023-03-28T02:21:20.913Z,98.80
2023-03-28T02:23:49.673Z,98.30
2023-03-28T02:26:17.231Z,98.30
2023-03-28T02:28:44.666Z,98.40
2023-03-28T02:31:11.667Z,99.10
2023-03-28T02:33:45.957Z,98.60
2023-03-28T02:36:26.658Z,98.70
2023-03-28T02:39:03.799Z,98.70
2023-03-28T02:41:33.457Z,98.50
2023-03-28T02:44:02.886Z,98.70
2023-03-28T02:46:49.611Z,98.90
2023-03-28T02:49:26.534Z,98.80
2023-03-28T02:52:14.720Z,98.70
2023-03-28T02:54:49.378Z,98.60
2023-03-28T02:57:18.431Z,98.50
2023-03-28T02:59:52.742Z,98.80
2023-03-28T03:02:20.399Z,98.90
2023-03-28T03:04:47.466Z,98.50
2023-03-28T03:07:14.506Z,98.50
2023-03-28T03:09:43.775Z,98.70
2023-03-28T03:12:11.670Z,98.60
2023-03-28T03:14:38.910Z,98.60
2023-03-28T03:17:05.811Z,98.60
2023-03-28T03:19:32.726Z,98.80
2023-03-28T03:21:59.205Z,98.60
2023-03-28T03:24:25.690Z,98.60
2023-03-28T03:26:52.164Z,98.60
2023-03-28T03:29:18.619Z,98.50
2023-03-28T03:31:45.253Z,98.50
2023-03-28T03:34:11.809Z,98.70
2023-03-28T03:36:38.267Z,98.60
2023-03-28T03:39:04.778Z,98.40
2023-03-28T03:41:31.269Z,98.70
2023-03-28T03:43:57.782Z,98.60
2023-03-28T03:46:24.331Z,98.60
2023-03-28T03:48:50.873Z,98.60
2023-03-28T03:51:17.457Z,98.50
2023-03-28T03:53:44.813Z,98.70
2023-03-28T03:56:11.285Z,98.80
2023-03-28T03:58:37.786Z,98.50
2023-03-28T04:01:04.408Z,98.50
2023-03-28T04:03:30.987Z,98.60
2023-03-28T04:05:58.031Z,98.80
2023-03-28T04:08:24.862Z,98.60
2023-03-28T04:10:51.456Z,98.60
2023-03-28T04:13:17.934Z,98.50
2023-03-28T04:15:46.350Z,98.00
2023-03-28T04:18:15.353Z,98.00
2023-03-28T04:20:43.403Z,98.10
2023-03-28T04:23:09.931Z,98.30
2023-03-28T04:25:36.703Z,98.60
2023-03-28T04:28:03.417Z,98.30
2023-03-28T04:30:29.913Z,98.30
2023-03-28T04:32:56.446Z,98.50
2023-03-28T04:35:24.008Z,98.30
2023-03-28T04:37:50.527Z,98.70
2023-03-28T04:40:17.644Z,98.50
2023-03-28T04:42:44.309Z,98.90
2023-03-28T04:45:10.928Z,98.90
2023-03-28T04:47:39.738Z,98.80
2023-03-28T04:50:07.770Z,99.00
2023-03-28T04:52:34.815Z,99.20
2023-03-28T04:55:01.332Z,99.20
2023-03-28T04:57:27.816Z,99.10
2023-03-28T04:59:54.341Z,99.30
2023-03-28T05:02:20.858Z,99.50
2023-03-28T05:04:47.497Z,99.40
2023-03-28T05:07:14.056Z,99.30
2023-03-28T05:09:40.526Z,99.50
2023-03-28T05:12:07.359Z,99.70
2023-03-28T05:14:33.893Z,99.90
2023-03-28T05:17:00.724Z,99.90
2023-03-28T05:19:27.195Z,99.90
2023-03-28T05:21:53.697Z,99.90
2023-03-28T05:24:20.146Z,99.90
2023-03-28T05:26:47.115Z,99.90
2023-03-28T05:29:13.663Z,99.90
2023-03-28T05:31:40.264Z,99.90
2023-03-28T05:34:06.758Z,99.90
2023-03-28T05:36:33.217Z,99.60
2023-03-28T05:38:59.698Z,99.80
2023-03-28T05:41:26.448Z,99.40
2023-03-28T05:43:52.917Z,99.10
2023-03-28T05:46:19.561Z,99.00
2023-03-28T05:48:49.394Z,99.00
2023-03-28T05:51:16.913Z,98.90
2023-03-28T05:53:43.700Z,98.20
2023-03-28T05:56:10.880Z,97.80
2023-03-28T05:58:37.382Z,97.40
2023-03-28T06:01:04.397Z,97.30
2023-03-28T06:03:32.063Z,96.80
2023-03-28T06:05:58.613Z,96.20
2023-03-28T06:08:25.288Z,96.10
2023-03-28T06:10:51.794Z,96.10
2023-03-28T06:13:18.309Z,95.40
2023-03-28T06:15:44.751Z,95.00
2023-03-28T06:18:11.298Z,94.40
2023-03-28T06:20:37.854Z,94.00
2023-03-28T06:23:04.460Z,93.40
2023-03-28T06:25:30.941Z,92.70
2023-03-28T06:27:57.859Z,92.60
2023-03-28T06:30:24.320Z,92.00
2023-03-28T06:32:51.130Z,92.70
2023-03-28T06:35:18.188Z,90.90
2023-03-28T06:37:44.703Z,90.40
2023-03-28T06:40:11.520Z,88.10
2023-03-28T06:42:38.048Z,89.20
2023-03-28T06:45:04.683Z,88.90
2023-03-28T06:47:31.224Z,89.90
2023-03-28T06:49:57.744Z,88.50
2023-03-28T06:52:24.225Z,90.90
2023-03-28T06:54:51.249Z,90.60
2023-03-28T06:57:17.783Z,90.60
2023-03-28T06:59:44.327Z,92.30
2023-03-28T07:02:11.369Z,92.50
2023-03-28T07:04:37.863Z,93.20
2023-03-28T07:07:04.395Z,93.60
2023-03-28T07:09:31.212Z,94.90
2023-03-28T07:11:57.670Z,94.10
2023-03-28T07:14:24.197Z,92.10
2023-03-28T07:16:50.682Z,92.70
2023-03-28T07:19:17.338Z,91.50
2023-03-28T07:21:43.781Z,90.90
2023-03-28T07:24:10.286Z,88.00
2023-03-28T07:26:36.807Z,86.10
2023-03-28T07:29:03.416Z,84.90
2023-03-28T07:31:29.937Z,83.60
2023-03-28T07:33:57.999Z,86.30
2023-03-28T07:36:26.377Z,86.70
2023-03-28T07:38:53.006Z,88.10
2023-03-28T07:41:19.812Z,87.20
2023-03-28T07:43:46.288Z,88.70
2023-03-28T07:46:14.371Z,83.70
2023-03-28T07:48:41.328Z,76.80
2023-03-28T07:51:09.122Z,75.60
2023-03-28T07:53:35.933Z,67.50
2023-03-28T07:56:02.424Z,67.30
2023-03-28T07:58:28.979Z,66.10
2023-03-28T08:00:56.234Z,64.80
2023-03-28T08:03:23.779Z,62.40
2023-03-28T08:05:54.153Z,56.60
2023-03-28T08:08:21.470Z,53.70
2023-03-28T08:10:51.065Z,55.10
2023-03-28T08:13:18.246Z,50.30
2023-03-28T08:15:44.794Z,46.80
2023-03-28T08:18:12.864Z,46.90
2023-03-28T08:20:39.321Z,43.60
2023-03-28T08:23:07.279Z,47.20
2023-03-28T08:25:33.787Z,50.20
2023-03-28T08:28:00.304Z,55.00
2023-03-28T08:30:27.083Z,56.30
2023-03-28T08:32:53.563Z,60.20
2023-03-28T08:35:20.116Z,60.30
2023-03-28T08:37:46.698Z,53.90
2023-03-28T08:40:16.219Z,48.50
2023-03-28T08:42:51.185Z,45.70
2023-03-28T08:45:23.581Z,43.70
2023-03-28T08:48:02.444Z,40.70
2023-03-28T08:50:31.288Z,39.60
2023-03-28T08:52:58.120Z,37.90
2023-03-28T08:55:30.519Z,38.60
2023-03-28T08:57:57.433Z,37.50
2023-03-28T09:00:29.593Z,37.60
2023-03-28T09:02:56.777Z,38.50
2023-03-28T09:05:37.313Z,39.00
2023-03-28T09:08:03.829Z,39.10
2023-03-28T09:10:42.662Z,38.40
2023-03-28T09:13:27.810Z,40.20
2023-03-28T09:16:12.402Z,40.60
2023-03-28T09:18:45.050Z,39.10
2023-03-28T09:21:35.853Z,38.90
2023-03-28T09:24:21.356Z,38.70
2023-03-28T09:26:56.641Z,39.30
2023-03-28T09:29:25.070Z,37.60
2023-03-28T09:32:14.636Z,37.70
2023-03-28T09:34:44.018Z,40.50
2023-03-28T09:37:29.694Z,39.30
2023-03-28T09:39:59.278Z,37.80
2023-03-28T09:42:36.489Z,41.60
2023-03-28T09:45:02.981Z,44.40
2023-03-28T09:47:29.629Z,42.70
2023-03-28T09:50:09.599Z,44.10
2023-03-28T09:52:39.330Z,45.80
2023-03-28T09:55:12.803Z,42.80
2023-03-28T09:57:58.862Z,47.30
2023-03-28T10:00:25.787Z,48.10
2023-03-28T10:02:53.059Z,46.60
2023-03-28T10:05:34.121Z,48.30
2023-03-28T10:08:03.130Z,50.20
2023-03-28T10:10:29.671Z,51.80
2023-03-28T10:12:57.746Z,49.10
2023-03-28T10:15:30.256Z,46.80
2023-03-28T10:17:58.928Z,47.50
2023-03-28T10:20:25.409Z,49.90
2023-03-28T10:22:54.543Z,48.30
2023-03-28T10:25:22.586Z,47.60
2023-03-28T10:27:51.619Z,49.30
2023-03-28T10:30:23.883Z,48.10
2023-03-28T10:33:11.837Z,46.60
2023-03-28T10:35:41.448Z,48.80
2023-03-28T10:38:18.375Z,50.00
2023-03-28T10:41:02.196Z,51.10
2023-03-28T10:43:33.816Z,50.50
2023-03-28T10:46:05.496Z,52.70
2023-03-28T10:48:34.303Z,53.60
2023-03-28T10:51:08.121Z,54.20
2023-03-28T10:53:49.066Z,55.10
2023-03-28T10:56:33.645Z,54.00
2023-03-28T10:59:19.078Z,54.50
2023-03-28T11:01:46.102Z,55.50
2023-03-28T11:04:19.380Z,53.70
2023-03-28T11:06:50.237Z,57.50
2023-03-28T11:09:21.035Z,54.90
2023-03-28T11:11:47.490Z,55.20
2023-03-28T11:14:27.352Z,54.80
2023-03-28T11:16:58.744Z,56.80
2023-03-28T11:19:25.197Z,54.60
2023-03-28T11:21:59.767Z,54.10
2023-03-28T11:24:26.350Z,55.70
2023-03-28T11:27:12.618Z,55.40
2023-03-28T11:29:45.816Z,55.60
2023-03-28T11:32:28.098Z,54.40
2023-03-28T11:35:14.857Z,51.10
2023-03-28T11:37:44.214Z,51.50
2023-03-28T11:40:18.325Z,54.40
2023-03-28T11:42:47.211Z,55.20
2023-03-28T11:45:49.602Z,55.40
2023-03-28T11:48:24.399Z,54.70
2023-03-28T11:51:03.213Z,54.00
2023-03-28T11:53:47.317Z,54.60
2023-03-28T11:56:13.854Z,54.70
2023-03-28T11:58:43.457Z,55.00
2023-03-28T12:01:16.979Z,55.40
2023-03-28T12:03:49.736Z,55.60
2023-03-28T12:06:21.969Z,52.90
2023-03-28T12:08:51.787Z,54.50
2023-03-28T12:11:25.496Z,52.90
2023-03-28T12:14:08.916Z,54.10
2023-03-28T12:16:42.165Z,53.90
2023-03-28T12:19:12.049Z,53.20
2023-03-28T12:22:05.022Z,54.80
2023-03-28T12:24:46.780Z,56.00
2023-03-28T12:27:18.217Z,55.40
2023-03-28T12:30:06.707Z,53.00
2023-03-28T12:32:33.171Z,54.70
2023-03-28T12:35:12.822Z,53.60
2023-03-28T12:37:56.855Z,54.00
2023-03-28T12:40:41.910Z,52.40
2023-03-28T12:43:10.713Z,52.70
2023-03-28T12:45:40.114Z,54.10
2023-03-28T12:48:18.374Z,52.90
2023-03-28T12:50:50.661Z,52.70
2023-03-28T12:53:17.538Z,52.90
2023-03-28T12:55:44.312Z,53.10
2023-03-28T12:58:12.517Z,53.90
2023-03-28T13:00:38.950Z,52.70
2023-03-28T13:03:05.520Z,49.80
2023-03-28T13:05:41.122Z,48.20
2023-03-28T13:08:21.130Z,47.70
2023-03-28T13:10:58.496Z,50.80
2023-03-28T13:13:30.563Z,52.10
2023-03-28T13:16:00.192Z,52.50
2023-03-28T13:18:29.674Z,50.60
2023-03-28T13:20:56.618Z,50.20
2023-03-28T13:23:27.975Z,50.60
2023-03-28T13:25:55.306Z,50.40
2023-03-28T13:28:29.045Z,48.70
2023-03-28T13:31:06.579Z,49.20
2023-03-28T13:33:34.304Z,49.20
2023-03-28T13:36:00.967Z,49.20
2023-03-28T13:38:27.773Z,49.00
2023-03-28T13:40:57.070Z,48.80
2023-03-28T13:43:23.627Z,51.00
2023-03-28T13:45:51.755Z,49.30
2023-03-28T13:48:18.480Z,50.40
2023-03-28T13:50:45.386Z,49.60
2023-03-28T13:53:11.914Z,51.00
2023-03-28T13:55:38.432Z,50.20
2023-03-28T13:58:04.921Z,50.30
2023-03-28T14:00:32.006Z,50.80
2023-03-28T14:03:02.312Z,50.40
2023-03-28T14:05:33.400Z,51.20
2023-03-28T14:08:19.511Z,49.80
2023-03-28T14:10:46.315Z,51.50
2023-03-28T14:13:18.250Z,51.00
2023-03-28T14:15:45.259Z,51.40
2023-03-28T14:18:31.650Z,48.70
2023-03-28T14:20:58.441Z,48.10
2023-03-28T14:23:32.969Z,49.00
2023-03-28T14:26:04.696Z,47.80
2023-03-28T14:28:31.678Z,48.30
2023-03-28T14:30:58.729Z,49.50
2023-03-28T14:33:25.457Z,48.70
2023-03-28T14:35:57.026Z,47.90
2023-03-28T14:38:27.996Z,46.00
2023-03-28T14:40:54.620Z,49.90
2023-03-28T14:43:26.006Z,48.80
2023-03-28T14:45:54.106Z,51.10
2023-03-28T14:48:24.677Z,50.00
2023-03-28T14:50:57.639Z,48.80
2023-03-28T14:53:25.791Z,49.10
2023-03-28T14:55:54.408Z,49.20
2023-03-28T14:58:24.409Z,49.90
2023-03-28T15:00:57.271Z,46.30
2023-03-28T15:03:26.253Z,45.30
2023-03-28T15:05:54.769Z,47.80
2023-03-28T15:08:28.072Z,47.50
2023-03-28T15:10:54.784Z,47.90
2023-03-28T15:13:26.045Z,47.30
2023-03-28T15:15:54.635Z,46.70
2023-03-28T15:18:25.216Z,49.20
2023-03-28T15:20:55.094Z,48.90
2023-03-28T15:23:31.891Z,49.00
2023-03-28T15:26:00.577Z,48.30
2023-03-28T15:28:27.927Z,47.40
2023-03-28T15:30:56.362Z,50.70
2023-03-28T15:33:24.571Z,48.30
2023-03-28T15:36:03.797Z,50.00
2023-03-28T15:38:30.453Z,48.50
2023-03-28T15:41:08.096Z,48.90
2023-03-28T15:43:37.315Z,48.90
2023-03-28T15:46:08.900Z,51.20
2023-03-28T15:48:35.714Z,50.20
2023-03-28T15:51:06.339Z,50.20
2023-03-28T15:53:32.821Z,47.90
2023-03-28T15:56:05.176Z,50.70
2023-03-28T15:58:31.943Z,50.80
2023-03-28T16:01:16.278Z,49.40
2023-03-28T16:03:42.852Z,49.70
2023-03-28T16:06:23.118Z,49.40
2023-03-28T16:09:07.078Z,49.60
2023-03-28T16:11:34.143Z,50.40
2023-03-28T16:14:00.999Z,50.40
2023-03-28T16:16:28.756Z,50.60
2023-03-28T16:18:55.612Z,51.20
2023-03-28T16:21:22.137Z,51.00
2023-03-28T16:23:48.600Z,53.00
2023-03-28T16:26:15.400Z,52.30
2023-03-28T16:28:42.142Z,50.40
2023-03-28T16:33:39.128Z,51.40
2023-03-28T16:36:05.831Z,52.50
2023-03-28T16:38:32.325Z,55.00
2023-03-28T16:40:58.776Z,51.50
2023-03-28T16:43:25.347Z,55.60
2023-03-28T16:45:52.059Z,55.90
2023-03-28T16:48:18.696Z,55.00
2023-03-28T16:50:55.511Z,52.00
2023-03-28T16:53:22.138Z,54.40
2023-03-28T16:55:48.767Z,54.90
2023-03-28T16:58:15.399Z,53.60
2023-03-28T17:00:42.081Z,53.80
2023-03-28T17:03:09.044Z,52.40
2023-03-28T17:05:36.317Z,52.40
2023-03-28T17:08:03.057Z,54.70
2023-03-28T17:10:29.616Z,54.80
2023-03-28T17:12:56.599Z,54.10
2023-03-28T17:15:23.082Z,54.50
2023-03-28T17:17:49.667Z,54.50
2023-03-28T17:20:17.110Z,55.10
2023-03-28T17:22:43.890Z,55.60
2023-03-28T17:25:11.110Z,55.30
2023-03-28T17:27:37.654Z,55.60
2023-03-28T17:30:04.393Z,56.60
2023-03-28T17:32:31.059Z,55.70
2023-03-28T17:34:57.934Z,56.30
2023-03-28T17:37:24.698Z,55.80
2023-03-28T17:39:52.333Z,56.20
2023-03-28T17:42:18.779Z,56.20
2023-03-28T17:44:45.463Z,55.90
2023-03-28T17:47:12.375Z,55.60
2023-03-28T17:49:38.837Z,55.80
2023-03-28T17:52:05.619Z,56.40
2023-03-28T17:54:32.486Z,55.90
2023-03-28T17:56:59.342Z,58.60
2023-03-28T17:59:26.273Z,57.40
2023-03-28T18:01:52.876Z,57.30
2023-03-28T18:04:19.591Z,57.50
2023-03-28T18:06:46.060Z,56.60
2023-03-28T18:09:12.761Z,58.20
2023-03-28T18:11:39.474Z,58.60
2023-03-28T18:14:06.381Z,58.70
2023-03-28T18:16:33.302Z,59.10
2023-03-28T18:19:00.161Z,58.50
2023-03-28T18:21:27.092Z,58.90
2023-03-28T18:23:53.572Z,60.00
2023-03-28T18:26:20.118Z,59.50
2023-03-28T18:28:46.617Z,59.00
2023-03-28T18:31:14.396Z,59.80
2023-03-28T18:33:42.783Z,59.50
2023-03-28T18:36:10.239Z,59.00
2023-03-28T18:38:38.180Z,60.00
2023-03-28T18:41:06.700Z,59.30
2023-03-28T18:43:33.563Z,60.20
2023-03-28T18:46:01.031Z,60.40
2023-03-28T18:48:30.842Z,60.70
2023-03-28T18:50:58.087Z,61.00
2023-03-28T18:53:25.069Z,60.40
2023-03-28T18:55:52.964Z,60.80
2023-03-28T18:58:19.806Z,61.10
2023-03-28T19:00:47.234Z,61.10
2023-03-28T19:03:17.154Z,59.90
2023-03-28T19:05:44.366Z,60.50
2023-03-28T19:08:10.850Z,61.30
2023-03-28T19:10:37.432Z,61.60
2023-03-28T19:13:03.901Z,61.60
2023-03-28T19:15:30.386Z,61.90
2023-03-28T19:17:57.322Z,63.40
2023-03-28T19:20:23.798Z,63.00
2023-03-28T19:22:50.382Z,62.80
2023-03-28T19:25:16.936Z,62.70
2023-03-28T19:27:43.660Z,61.90
2023-03-28T19:30:10.355Z,61.50
2023-03-28T19:32:36.878Z,62.90
2023-03-28T19:35:03.534Z,62.10
2023-03-28T19:37:30.045Z,62.80
2023-03-28T19:39:59.010Z,62.70
2023-03-28T19:42:25.809Z,62.70
2023-03-28T19:44:52.417Z,63.70
2023-03-28T19:47:19.456Z,63.60
2023-03-28T19:49:46.127Z,63.50
2023-03-28T19:52:12.626Z,63.30
2023-03-28T19:54:39.168Z,64.10
2023-03-28T19:57:07.994Z,65.60
2023-03-28T19:59:34.947Z,64.20
2023-03-28T20:02:01.799Z,64.80
2023-03-28T20:04:28.670Z,64.10
2023-03-28T20:06:55.185Z,64.80
2023-03-28T20:09:21.753Z,65.40
2023-03-28T20:11:48.233Z,64.20
2023-03-28T20:14:17.151Z,64.40
2023-03-28T20:16:44.313Z,65.60
2023-03-28T20:19:10.833Z,65.00
2023-03-28T20:21:37.356Z,66.30
2023-03-28T20:24:04.145Z,65.80
2023-03-28T20:26:31.720Z,67.10
2023-03-28T20:28:59.326Z,65.40
2023-03-28T20:31:26.574Z,67.80
2023-03-28T20:33:53.418Z,70.10
2023-03-28T20:36:19.971Z,68.40
2023-03-28T20:38:46.563Z,66.10
2023-03-28T20:41:13.915Z,66.70
2023-03-28T20:43:46.630Z,69.60
2023-03-28T20:46:14.489Z,68.20
2023-03-28T20:48:41.938Z,68.80
2023-03-28T20:51:17.238Z,69.70
2023-03-28T20:53:45.356Z,68.40
2023-03-28T20:56:12.044Z,68.60
2023-03-28T20:58:39.453Z,67.00
2023-03-28T21:01:07.150Z,67.00
2023-03-28T21:03:46.848Z,68.60
2023-03-28T21:06:17.668Z,68.20
2023-03-28T21:08:45.844Z,67.90
2023-03-28T21:11:16.095Z,68.20
2023-03-28T21:13:42.634Z,67.80
2023-03-28T21:16:09.948Z,69.60
2023-03-28T21:18:37.338Z,68.30
2023-03-28T21:21:07.400Z,68.40
2023-03-28T21:23:34.548Z,68.70
2023-03-28T21:26:01.370Z,67.20
2023-03-28T21:28:27.914Z,68.50
2023-03-28T21:31:01.720Z,69.60
2023-03-28T21:33:29.128Z,68.60
2023-03-28T21:35:56.975Z,68.00
2023-03-28T21:38:23.786Z,69.30
2023-03-28T21:40:50.291Z,69.40
2023-03-28T21:43:16.888Z,68.80
2023-03-28T21:45:44.983Z,68.70
2023-03-28T21:48:12.766Z,67.80
2023-03-28T21:50:40.713Z,68.10
2023-03-28T21:53:08.164Z,68.00
2023-03-28T21:55:34.718Z,68.40
2023-03-28T21:58:01.300Z,68.80
2023-03-28T22:00:28.343Z,68.40
2023-03-28T22:02:55.417Z,68.40
2023-03-28T22:05:29.367Z,68.70
2023-03-28T22:07:56.630Z,68.20
2023-03-28T22:10:26.515Z,69.00
2023-03-28T22:12:53.539Z,69.10
2023-03-28T22:15:20.034Z,68.20
2023-03-28T22:17:46.550Z,68.50
2023-03-28T22:20:14.138Z,69.20
2023-03-28T22:22:44.570Z,70.20
2023-03-28T22:25:12.524Z,70.20
2023-03-28T22:27:39.461Z,70.50
2023-03-28T22:30:09.038Z,70.70
2023-03-28T22:32:37.841Z,70.80
2023-03-28T22:35:04.696Z,71.10
2023-03-28T22:37:31.170Z,71.40
2023-03-28T22:39:57.710Z,71.90
2023-03-28T22:42:24.278Z,72.00
2023-03-28T22:44:51.145Z,72.50
2023-03-28T22:47:17.950Z,72.80
2023-03-28T22:49:44.848Z,74.00
2023-03-28T22:52:12.640Z,74.20
2023-03-28T22:54:39.117Z,75.20
2023-03-28T22:57:05.801Z,75.30
2023-03-28T22:59:32.912Z,77.40
2023-03-28T23:01:59.380Z,77.10
2023-03-28T23:04:27.105Z,77.60
2023-03-28T23:06:54.983Z,78.10
2023-03-28T23:09:21.892Z,78.90
2023-03-28T23:11:48.458Z,79.60
2023-03-28T23:14:14.938Z,81.00
2023-03-28T23:16:43.314Z,80.60
2023-03-28T23:19:09.969Z,81.00
2023-03-28T23:21:36.838Z,80.60
2023-03-28T23:24:03.952Z,80.90
2023-03-28T23:26:31.657Z,82.00
2023-03-28T23:28:58.260Z,81.40
2023-03-28T23:31:24.762Z,81.00
2023-03-28T23:33:51.276Z,81.00
2023-03-28T23:36:21.011Z,81.40
2023-03-28T23:38:48.278Z,82.70
2023-03-28T23:41:14.865Z,82.30
2023-03-28T23:43:41.651Z,82.70
2023-03-28T23:46:08.936Z,82.60
2023-03-28T23:48:36.113Z,82.60
2023-03-28T23:51:03.014Z,81.90
2023-03-28T23:53:29.967Z,81.60
2023-03-28T23:55:56.472Z,82.20
2023-03-28T23:58:23.028Z,83.80
